sensor_id;sensor_type;location;lat;lon;timestamp;P1;durP1;ratioP1;P2;durP2;ratioP2
40731;SDS011;26420;52.256;9.096;2023-11-21T00:03:13;17.02;;;7.18;;
40731;SDS011;26420;52.256;9.096;2023-11-21T00:08:16;17.25;;;8.45;;
40731;SDS011;26420;52.256;9.096;2023-11-21T00:13:18;19.88;;;7.32;;
40731;SDS011;26420;52.256;9.096;2023-11-21T00:18:20;24.08;;;8.40;;
40731;SDS011;26420;52.256;9.096;2023-11-21T00:23:23;18.23;;;8.25;;
40731;SDS011;26420;52.256;9.096;2023-11-21T00:28:26;23.23;;;9.07;;
40731;SDS011;26420;52.256;9.096;2023-11-21T00:33:28;21.30;;;8.77;;
40731;SDS011;26420;52.256;9.096;2023-11-21T00:38:30;17.70;;;8.55;;
40731;SDS011;26420;52.256;9.096;2023-11-21T00:43:32;23.98;;;9.15;;
40731;SDS011;26420;52.256;9.096;2023-11-21T00:48:35;27.02;;;9.40;;
40731;SDS011;26420;52.256;9.096;2023-11-21T00:53:37;28.48;;;9.43;;
40731;SDS011;26420;52.256;9.096;2023-11-21T00:58:40;22.77;;;10.55;;
40731;SDS011;26420;52.256;9.096;2023-11-21T01:03:50;23.27;;;9.73;;
40731;SDS011;26420;52.256;9.096;2023-11-21T01:08:53;24.55;;;10.88;;
40731;SDS011;26420;52.256;9.096;2023-11-21T01:13:55;25.92;;;9.50;;
40731;SDS011;26420;52.256;9.096;2023-11-21T01:18:59;23.92;;;9.85;;
40731;SDS011;26420;52.256;9.096;2023-11-21T01:24:01;26.85;;;10.07;;
40731;SDS011;26420;52.256;9.096;2023-11-21T01:29:03;27.02;;;10.55;;
40731;SDS011;26420;52.256;9.096;2023-11-21T01:34:06;23.73;;;10.57;;
40731;SDS011;26420;52.256;9.096;2023-11-21T01:39:08;22.48;;;10.55;;
40731;SDS011;26420;52.256;9.096;2023-11-21T01:44:16;27.15;;;10.70;;
40731;SDS011;26420;52.256;9.096;2023-11-21T01:49:20;24.40;;;10.30;;
40731;SDS011;26420;52.256;9.096;2023-11-21T01:54:22;28.60;;;12.15;;
40731;SDS011;26420;52.256;9.096;2023-11-21T01:59:25;28.95;;;11.00;;
40731;SDS011;26420;52.256;9.096;2023-11-21T02:04:27;27.25;;;10.73;;
40731;SDS011;26420;52.256;9.096;2023-11-21T02:09:30;26.63;;;10.95;;
40731;SDS011;26420;52.256;9.096;2023-11-21T02:14:32;30.10;;;10.82;;
40731;SDS011;26420;52.256;9.096;2023-11-21T02:19:35;24.52;;;9.45;;
40731;SDS011;26420;52.256;9.096;2023-11-21T02:24:37;27.02;;;10.98;;
40731;SDS011;26420;52.256;9.096;2023-11-21T02:29:41;34.83;;;11.40;;
40731;SDS011;26420;52.256;9.096;2023-11-21T02:34:44;31.88;;;11.25;;
40731;SDS011;26420;52.256;9.096;2023-11-21T02:39:46;28.20;;;10.82;;
40731;SDS011;26420;52.256;9.096;2023-11-21T02:44:49;33.35;;;10.73;;
40731;SDS011;26420;52.256;9.096;2023-11-21T02:49:51;27.52;;;10.48;;
40731;SDS011;26420;52.256;9.096;2023-11-21T02:54:53;35.90;;;11.85;;
40731;SDS011;26420;52.256;9.096;2023-11-21T02:59:55;28.48;;;10.82;;
40731;SDS011;26420;52.256;9.096;2023-11-21T03:04:58;29.27;;;10.57;;
40731;SDS011;26420;52.256;9.096;2023-11-21T03:10:00;22.52;;;10.75;;
40731;SDS011;26420;52.256;9.096;2023-11-21T03:15:03;33.03;;;10.10;;
40731;SDS011;26420;52.256;9.096;2023-11-21T03:20:08;29.90;;;10.82;;
40731;SDS011;26420;52.256;9.096;2023-11-21T03:25:12;26.35;;;9.75;;
40731;SDS011;26420;52.256;9.096;2023-11-21T03:30:16;28.60;;;10.88;;
40731;SDS011;26420;52.256;9.096;2023-11-21T03:35:18;32.97;;;9.57;;
40731;SDS011;26420;52.256;9.096;2023-11-21T03:40:22;34.97;;;11.45;;
40731;SDS011;26420;52.256;9.096;2023-11-21T03:45:24;33.25;;;10.88;;
40731;SDS011;26420;52.256;9.096;2023-11-21T03:50:27;27.27;;;11.00;;
40731;SDS011;26420;52.256;9.096;2023-11-21T03:55:30;32.90;;;10.27;;
40731;SDS011;26420;52.256;9.096;2023-11-21T04:00:33;25.48;;;10.45;;
40731;SDS011;26420;52.256;9.096;2023-11-21T04:05:35;30.80;;;10.55;;
40731;SDS011;26420;52.256;9.096;2023-11-21T04:10:37;23.10;;;9.55;;
40731;SDS011;26420;52.256;9.096;2023-11-21T04:15:40;25.83;;;11.50;;
40731;SDS011;26420;52.256;9.096;2023-11-21T04:20:43;22.40;;;9.50;;
40731;SDS011;26420;52.256;9.096;2023-11-21T04:25:45;35.60;;;10.80;;
40731;SDS011;26420;52.256;9.096;2023-11-21T04:30:47;31.50;;;10.20;;
40731;SDS011;26420;52.256;9.096;2023-11-21T04:35:50;30.52;;;10.10;;
40731;SDS011;26420;52.256;9.096;2023-11-21T04:40:52;29.67;;;9.05;;
40731;SDS011;26420;52.256;9.096;2023-11-21T04:45:54;26.05;;;9.73;;
40731;SDS011;26420;52.256;9.096;2023-11-21T04:50:57;21.33;;;8.30;;
40731;SDS011;26420;52.256;9.096;2023-11-21T04:55:59;24.80;;;9.00;;
40731;SDS011;26420;52.256;9.096;2023-11-21T05:01:01;25.45;;;9.68;;
40731;SDS011;26420;52.256;9.096;2023-11-21T05:06:09;29.38;;;8.15;;
40731;SDS011;26420;52.256;9.096;2023-11-21T05:11:11;27.08;;;9.20;;
40731;SDS011;26420;52.256;9.096;2023-11-21T05:16:25;30.33;;;10.18;;
40731;SDS011;26420;52.256;9.096;2023-11-21T05:21:29;32.55;;;8.60;;
40731;SDS011;26420;52.256;9.096;2023-11-21T05:26:33;21.83;;;8.90;;
40731;SDS011;26420;52.256;9.096;2023-11-21T05:31:35;22.05;;;8.40;;
40731;SDS011;26420;52.256;9.096;2023-11-21T05:36:38;21.48;;;8.10;;
40731;SDS011;26420;52.256;9.096;2023-11-21T05:41:40;22.00;;;7.97;;
40731;SDS011;26420;52.256;9.096;2023-11-21T05:46:43;22.45;;;7.85;;
40731;SDS011;26420;52.256;9.096;2023-11-21T05:51:45;19.27;;;8.15;;
40731;SDS011;26420;52.256;9.096;2023-11-21T05:56:47;18.13;;;7.63;;
40731;SDS011;26420;52.256;9.096;2023-11-21T06:01:50;24.15;;;9.68;;
40731;SDS011;26420;52.256;9.096;2023-11-21T06:06:52;27.13;;;8.10;;
40731;SDS011;26420;52.256;9.096;2023-11-21T06:11:55;22.88;;;8.35;;
40731;SDS011;26420;52.256;9.096;2023-11-21T06:16:57;20.80;;;8.63;;
40731;SDS011;26420;52.256;9.096;2023-11-21T06:21:59;23.67;;;8.70;;
40731;SDS011;26420;52.256;9.096;2023-11-21T06:27:05;23.88;;;6.82;;
40731;SDS011;26420;52.256;9.096;2023-11-21T06:32:08;26.02;;;8.95;;
40731;SDS011;26420;52.256;9.096;2023-11-21T06:37:10;21.15;;;8.00;;
40731;SDS011;26420;52.256;9.096;2023-11-21T06:42:13;19.05;;;7.65;;
40731;SDS011;26420;52.256;9.096;2023-11-21T06:47:16;18.92;;;8.02;;
40731;SDS011;26420;52.256;9.096;2023-11-21T06:52:19;18.52;;;7.15;;
40731;SDS011;26420;52.256;9.096;2023-11-21T06:57:24;14.25;;;6.10;;
40731;SDS011;26420;52.256;9.096;2023-11-21T07:02:26;16.70;;;6.53;;
40731;SDS011;26420;52.256;9.096;2023-11-21T07:07:30;14.10;;;5.57;;
40731;SDS011;26420;52.256;9.096;2023-11-21T07:12:32;12.75;;;5.32;;
40731;SDS011;26420;52.256;9.096;2023-11-21T07:17:35;11.07;;;5.35;;
40731;SDS011;26420;52.256;9.096;2023-11-21T07:22:41;14.70;;;6.75;;
40731;SDS011;26420;52.256;9.096;2023-11-21T07:27:43;11.80;;;5.07;;
40731;SDS011;26420;52.256;9.096;2023-11-21T07:32:46;11.02;;;5.10;;
40731;SDS011;26420;52.256;9.096;2023-11-21T07:37:49;12.65;;;4.72;;
40731;SDS011;26420;52.256;9.096;2023-11-21T07:42:51;13.40;;;4.82;;
40731;SDS011;26420;52.256;9.096;2023-11-21T07:47:54;9.88;;;4.35;;
40731;SDS011;26420;52.256;9.096;2023-11-21T07:52:57;10.70;;;4.43;;
40731;SDS011;26420;52.256;9.096;2023-11-21T07:57:59;10.25;;;4.20;;
40731;SDS011;26420;52.256;9.096;2023-11-21T08:03:02;10.23;;;4.45;;
40731;SDS011;26420;52.256;9.096;2023-11-21T08:08:04;6.65;;;3.80;;
40731;SDS011;26420;52.256;9.096;2023-11-21T08:13:06;7.78;;;3.47;;
40731;SDS011;26420;52.256;9.096;2023-11-21T08:18:10;7.60;;;3.53;;
40731;SDS011;26420;52.256;9.096;2023-11-21T08:23:13;7.18;;;3.90;;
40731;SDS011;26420;52.256;9.096;2023-11-21T08:28:16;9.38;;;4.03;;
40731;SDS011;26420;52.256;9.096;2023-11-21T08:33:18;5.80;;;3.75;;
40731;SDS011;26420;52.256;9.096;2023-11-21T08:38:21;6.47;;;3.65;;
40731;SDS011;26420;52.256;9.096;2023-11-21T08:43:23;5.93;;;3.22;;
40731;SDS011;26420;52.256;9.096;2023-11-21T08:48:26;6.28;;;3.17;;
40731;SDS011;26420;52.256;9.096;2023-11-21T08:53:30;4.75;;;3.08;;
40731;SDS011;26420;52.256;9.096;2023-11-21T08:58:34;6.38;;;4.50;;
40731;SDS011;26420;52.256;9.096;2023-11-21T09:03:38;6.47;;;3.22;;
40731;SDS011;26420;52.256;9.096;2023-11-21T09:08:43;3.33;;;2.45;;
40731;SDS011;26420;52.256;9.096;2023-11-21T09:13:45;7.45;;;2.65;;
40731;SDS011;26420;52.256;9.096;2023-11-21T09:18:48;5.90;;;3.30;;
40731;SDS011;26420;52.256;9.096;2023-11-21T09:23:50;6.38;;;3.85;;
40731;SDS011;26420;52.256;9.096;2023-11-21T09:28:52;5.65;;;2.42;;
40731;SDS011;26420;52.256;9.096;2023-11-21T09:33:55;4.88;;;2.92;;
40731;SDS011;26420;52.256;9.096;2023-11-21T09:38:58;5.15;;;3.17;;
40731;SDS011;26420;52.256;9.096;2023-11-21T09:44:03;12.20;;;7.70;;
40731;SDS011;26420;52.256;9.096;2023-11-21T09:49:09;8.35;;;4.50;;
40731;SDS011;26420;52.256;9.096;2023-11-21T09:54:13;7.82;;;4.30;;
40731;SDS011;26420;52.256;9.096;2023-11-21T09:59:17;7.10;;;4.10;;
40731;SDS011;26420;52.256;9.096;2023-11-21T10:04:20;11.10;;;5.30;;
40731;SDS011;26420;52.256;9.096;2023-11-21T10:09:23;8.48;;;4.40;;
40731;SDS011;26420;52.256;9.096;2023-11-21T10:14:28;8.60;;;4.97;;
40731;SDS011;26420;52.256;9.096;2023-11-21T10:19:31;8.50;;;4.07;;
40731;SDS011;26420;52.256;9.096;2023-11-21T10:24:34;8.10;;;4.25;;
40731;SDS011;26420;52.256;9.096;2023-11-21T10:29:45;6.63;;;3.83;;
40731;SDS011;26420;52.256;9.096;2023-11-21T10:34:56;10.95;;;5.75;;
40731;SDS011;26420;52.256;9.096;2023-11-21T10:40:03;7.70;;;4.30;;
40731;SDS011;26420;52.256;9.096;2023-11-21T10:45:07;8.55;;;4.28;;
40731;SDS011;26420;52.256;9.096;2023-11-21T10:50:15;9.65;;;4.38;;
40731;SDS011;26420;52.256;9.096;2023-11-21T10:55:20;7.93;;;4.25;;
40731;SDS011;26420;52.256;9.096;2023-11-21T11:00:25;5.80;;;4.03;;
40731;SDS011;26420;52.256;9.096;2023-11-21T11:05:29;7.85;;;4.28;;
40731;SDS011;26420;52.256;9.096;2023-11-21T11:10:36;8.43;;;4.13;;
40731;SDS011;26420;52.256;9.096;2023-11-21T11:15:39;5.43;;;3.28;;
40731;SDS011;26420;52.256;9.096;2023-11-21T11:20:43;4.88;;;3.38;;
40731;SDS011;26420;52.256;9.096;2023-11-21T11:41:43;9.38;;;3.72;;
40731;SDS011;26420;52.256;9.096;2023-11-21T12:12:26;5.65;;;4.32;;
40731;SDS011;26420;52.256;9.096;2023-11-21T12:17:29;5.68;;;3.65;;
40731;SDS011;26420;52.256;9.096;2023-11-21T12:22:31;6.07;;;3.03;;
40731;SDS011;26420;52.256;9.096;2023-11-21T12:27:34;5.03;;;2.80;;
40731;SDS011;26420;52.256;9.096;2023-11-21T12:32:37;4.57;;;2.50;;
40731;SDS011;26420;52.256;9.096;2023-11-21T12:37:43;3.25;;;2.45;;
40731;SDS011;26420;52.256;9.096;2023-11-21T12:42:53;3.70;;;2.60;;
40731;SDS011;26420;52.256;9.096;2023-11-21T12:47:59;6.53;;;2.53;;
40731;SDS011;26420;52.256;9.096;2023-11-21T12:53:06;2.78;;;2.35;;
40731;SDS011;26420;52.256;9.096;2023-11-21T12:58:17;4.35;;;2.67;;
40731;SDS011;26420;52.256;9.096;2023-11-21T13:03:21;3.50;;;2.25;;
40731;SDS011;26420;52.256;9.096;2023-11-21T13:08:27;3.67;;;2.40;;
40731;SDS011;26420;52.256;9.096;2023-11-21T13:13:31;3.55;;;2.70;;
40731;SDS011;26420;52.256;9.096;2023-11-21T13:18:34;3.83;;;2.15;;
40731;SDS011;26420;52.256;9.096;2023-11-21T13:23:42;4.22;;;2.80;;
40731;SDS011;26420;52.256;9.096;2023-11-21T13:28:47;5.03;;;3.30;;
40731;SDS011;26420;52.256;9.096;2023-11-21T13:33:50;4.93;;;3.17;;
40731;SDS011;26420;52.256;9.096;2023-11-21T13:38:57;4.88;;;2.92;;
40731;SDS011;26420;52.256;9.096;2023-11-21T13:44:00;4.15;;;2.67;;
40731;SDS011;26420;52.256;9.096;2023-11-21T13:54:36;5.75;;;3.08;;
40731;SDS011;26420;52.256;9.096;2023-11-21T13:59:39;9.15;;;4.13;;
40731;SDS011;26420;52.256;9.096;2023-11-21T14:04:42;3.92;;;2.53;;
40731;SDS011;26420;52.256;9.096;2023-11-21T14:09:54;4.10;;;2.85;;
40731;SDS011;26420;52.256;9.096;2023-11-21T14:14:57;36.75;;;12.85;;
40731;SDS011;26420;52.256;9.096;2023-11-21T14:20:00;81.85;;;27.73;;
40731;SDS011;26420;52.256;9.096;2023-11-21T14:25:06;12.00;;;7.13;;
40731;SDS011;26420;52.256;9.096;2023-11-21T14:30:13;10.75;;;7.38;;
40731;SDS011;26420;52.256;9.096;2023-11-21T14:35:19;6.93;;;5.43;;
40731;SDS011;26420;52.256;9.096;2023-11-21T14:40:21;4.30;;;3.47;;
40731;SDS011;26420;52.256;9.096;2023-11-21T14:45:25;5.45;;;2.90;;
40731;SDS011;26420;52.256;9.096;2023-11-21T14:50:28;4.93;;;2.53;;
40731;SDS011;26420;52.256;9.096;2023-11-21T14:55:42;6.15;;;3.40;;
40731;SDS011;26420;52.256;9.096;2023-11-21T15:00:51;4.97;;;3.08;;
40731;SDS011;26420;52.256;9.096;2023-11-21T15:05:59;3.15;;;2.25;;
40731;SDS011;26420;52.256;9.096;2023-11-21T15:11:20;3.13;;;2.20;;
40731;SDS011;26420;52.256;9.096;2023-11-21T15:16:26;3.67;;;2.50;;
40731;SDS011;26420;52.256;9.096;2023-11-21T15:21:28;3.47;;;2.20;;
40731;SDS011;26420;52.256;9.096;2023-11-21T15:26:31;3.53;;;2.47;;
40731;SDS011;26420;52.256;9.096;2023-11-21T15:31:33;3.80;;;2.30;;
40731;SDS011;26420;52.256;9.096;2023-11-21T15:36:37;3.58;;;2.50;;
40731;SDS011;26420;52.256;9.096;2023-11-21T15:41:40;4.72;;;3.50;;
40731;SDS011;26420;52.256;9.096;2023-11-21T15:46:43;5.43;;;2.55;;
40731;SDS011;26420;52.256;9.096;2023-11-21T15:51:45;3.95;;;2.50;;
40731;SDS011;26420;52.256;9.096;2023-11-21T15:56:54;6.63;;;3.30;;
40731;SDS011;26420;52.256;9.096;2023-11-21T16:01:58;20.75;;;12.85;;
40731;SDS011;26420;52.256;9.096;2023-11-21T16:07:01;8.02;;;5.53;;
40731;SDS011;26420;52.256;9.096;2023-11-21T16:12:05;5.72;;;4.10;;
40731;SDS011;26420;52.256;9.096;2023-11-21T16:17:08;3.58;;;2.95;;
40731;SDS011;26420;52.256;9.096;2023-11-21T16:22:12;6.45;;;3.10;;
40731;SDS011;26420;52.256;9.096;2023-11-21T16:27:15;4.70;;;2.80;;
40731;SDS011;26420;52.256;9.096;2023-11-21T16:32:18;5.10;;;3.00;;
40731;SDS011;26420;52.256;9.096;2023-11-21T16:37:21;5.35;;;2.60;;
40731;SDS011;26420;52.256;9.096;2023-11-21T16:42:24;3.78;;;2.55;;
40731;SDS011;26420;52.256;9.096;2023-11-21T16:47:29;5.28;;;3.00;;
40731;SDS011;26420;52.256;9.096;2023-11-21T16:52:34;4.57;;;2.75;;
40731;SDS011;26420;52.256;9.096;2023-11-21T16:57:36;7.03;;;2.97;;
40731;SDS011;26420;52.256;9.096;2023-11-21T17:02:39;3.65;;;2.50;;
40731;SDS011;26420;52.256;9.096;2023-11-21T17:07:42;4.63;;;2.83;;
40731;SDS011;26420;52.256;9.096;2023-11-21T17:12:46;4.10;;;2.83;;
40731;SDS011;26420;52.256;9.096;2023-11-21T17:17:51;4.00;;;2.72;;
40731;SDS011;26420;52.256;9.096;2023-11-21T17:22:57;6.40;;;3.00;;
40731;SDS011;26420;52.256;9.096;2023-11-21T17:27:59;4.45;;;3.25;;
40731;SDS011;26420;52.256;9.096;2023-11-21T17:33:02;5.57;;;2.80;;
40731;SDS011;26420;52.256;9.096;2023-11-21T17:38:04;6.60;;;2.85;;
40731;SDS011;26420;52.256;9.096;2023-11-21T17:43:06;11.13;;;4.18;;
40731;SDS011;26420;52.256;9.096;2023-11-21T17:48:09;29.35;;;14.27;;
40731;SDS011;26420;52.256;9.096;2023-11-21T17:53:12;9.02;;;5.93;;
40731;SDS011;26420;52.256;9.096;2023-11-21T17:58:14;3.88;;;2.78;;
40731;SDS011;26420;52.256;9.096;2023-11-21T18:03:17;4.93;;;2.78;;
40731;SDS011;26420;52.256;9.096;2023-11-21T18:08:19;7.00;;;3.85;;
40731;SDS011;26420;52.256;9.096;2023-11-21T18:13:22;5.18;;;4.05;;
40731;SDS011;26420;52.256;9.096;2023-11-21T18:18:24;4.20;;;2.95;;
40731;SDS011;26420;52.256;9.096;2023-11-21T18:23:27;4.55;;;2.88;;
40731;SDS011;26420;52.256;9.096;2023-11-21T18:28:29;4.07;;;3.10;;
40731;SDS011;26420;52.256;9.096;2023-11-21T18:33:32;5.20;;;2.90;;
40731;SDS011;26420;52.256;9.096;2023-11-21T18:38:35;3.30;;;2.80;;
40731;SDS011;26420;52.256;9.096;2023-11-21T18:43:39;2.67;;;2.42;;
40731;SDS011;26420;52.256;9.096;2023-11-21T18:48:42;3.35;;;2.25;;
40731;SDS011;26420;52.256;9.096;2023-11-21T18:53:48;4.25;;;3.13;;
40731;SDS011;26420;52.256;9.096;2023-11-21T18:58:50;4.50;;;3.05;;
40731;SDS011;26420;52.256;9.096;2023-11-21T19:03:54;3.35;;;2.80;;
40731;SDS011;26420;52.256;9.096;2023-11-21T19:08:59;43.05;;;19.67;;
40731;SDS011;26420;52.256;9.096;2023-11-21T19:14:01;99.35;;;42.70;;
40731;SDS011;26420;52.256;9.096;2023-11-21T19:19:03;65.55;;;23.65;;
40731;SDS011;26420;52.256;9.096;2023-11-21T19:24:06;54.10;;;22.52;;
40731;SDS011;26420;52.256;9.096;2023-11-21T19:29:09;10.57;;;5.53;;
40731;SDS011;26420;52.256;9.096;2023-11-21T19:34:11;4.75;;;3.10;;
40731;SDS011;26420;52.256;9.096;2023-11-21T19:39:13;7.32;;;3.70;;
40731;SDS011;26420;52.256;9.096;2023-11-21T19:44:16;6.35;;;4.47;;
40731;SDS011;26420;52.256;9.096;2023-11-21T19:49:18;5.13;;;2.83;;
40731;SDS011;26420;52.256;9.096;2023-11-21T19:54:21;4.00;;;2.75;;
40731;SDS011;26420;52.256;9.096;2023-11-21T19:59:23;4.97;;;3.25;;
40731;SDS011;26420;52.256;9.096;2023-11-21T20:04:26;5.63;;;3.20;;
40731;SDS011;26420;52.256;9.096;2023-11-21T20:09:28;3.72;;;3.08;;
40731;SDS011;26420;52.256;9.096;2023-11-21T20:14:31;6.03;;;2.95;;
40731;SDS011;26420;52.256;9.096;2023-11-21T20:19:35;75.10;;;36.38;;
40731;SDS011;26420;52.256;9.096;2023-11-21T20:24:38;9.88;;;7.30;;
40731;SDS011;26420;52.256;9.096;2023-11-21T20:29:40;4.82;;;3.35;;
40731;SDS011;26420;52.256;9.096;2023-11-21T20:34:43;15.00;;;6.80;;
40731;SDS011;26420;52.256;9.096;2023-11-21T20:39:45;7.63;;;3.85;;
40731;SDS011;26420;52.256;9.096;2023-11-21T20:44:50;5.80;;;3.03;;
40731;SDS011;26420;52.256;9.096;2023-11-21T20:49:52;2.95;;;2.42;;
40731;SDS011;26420;52.256;9.096;2023-11-21T20:55:00;4.32;;;2.65;;
40731;SDS011;26420;52.256;9.096;2023-11-21T21:00:02;3.38;;;1.95;;
40731;SDS011;26420;52.256;9.096;2023-11-21T21:05:11;4.43;;;2.53;;
40731;SDS011;26420;52.256;9.096;2023-11-21T21:10:16;6.28;;;2.92;;
40731;SDS011;26420;52.256;9.096;2023-11-21T21:15:18;2.55;;;2.15;;
40731;SDS011;26420;52.256;9.096;2023-11-21T21:20:20;4.25;;;2.33;;
40731;SDS011;26420;52.256;9.096;2023-11-21T21:25:23;7.50;;;2.53;;
40731;SDS011;26420;52.256;9.096;2023-11-21T21:30:25;4.93;;;2.90;;
40731;SDS011;26420;52.256;9.096;2023-11-21T21:35:29;14.68;;;7.30;;
40731;SDS011;26420;52.256;9.096;2023-11-21T21:40:31;9.10;;;4.53;;
40731;SDS011;26420;52.256;9.096;2023-11-21T21:45:34;5.32;;;2.75;;
40731;SDS011;26420;52.256;9.096;2023-11-21T21:50:38;2.80;;;2.28;;
40731;SDS011;26420;52.256;9.096;2023-11-21T21:55:41;3.85;;;2.17;;
40731;SDS011;26420;52.256;9.096;2023-11-21T22:00:43;3.92;;;2.88;;
40731;SDS011;26420;52.256;9.096;2023-11-21T22:05:46;3.70;;;2.03;;
40731;SDS011;26420;52.256;9.096;2023-11-21T22:10:48;3.65;;;1.90;;
40731;SDS011;26420;52.256;9.096;2023-11-21T22:15:50;5.30;;;2.75;;
40731;SDS011;26420;52.256;9.096;2023-11-21T22:20:53;2.88;;;2.00;;
40731;SDS011;26420;52.256;9.096;2023-11-21T22:25:55;6.22;;;3.10;;
40731;SDS011;26420;52.256;9.096;2023-11-21T22:30:57;6.10;;;3.13;;
40731;SDS011;26420;52.256;9.096;2023-11-21T22:35:59;3.60;;;2.50;;
40731;SDS011;26420;52.256;9.096;2023-11-21T22:41:02;5.40;;;2.70;;
40731;SDS011;26420;52.256;9.096;2023-11-21T22:46:06;6.10;;;2.15;;
40731;SDS011;26420;52.256;9.096;2023-11-21T22:51:08;5.20;;;2.22;;
40731;SDS011;26420;52.256;9.096;2023-11-21T22:56:12;6.45;;;2.83;;
40731;SDS011;26420;52.256;9.096;2023-11-21T23:01:15;7.78;;;3.33;;
40731;SDS011;26420;52.256;9.096;2023-11-21T23:06:17;4.93;;;2.67;;
40731;SDS011;26420;52.256;9.096;2023-11-21T23:11:20;3.45;;;2.47;;
40731;SDS011;26420;52.256;9.096;2023-11-21T23:16:22;4.05;;;2.72;;
40731;SDS011;26420;52.256;9.096;2023-11-21T23:21:25;4.13;;;2.30;;
40731;SDS011;26420;52.256;9.096;2023-11-21T23:26:30;5.43;;;2.60;;
40731;SDS011;26420;52.256;9.096;2023-11-21T23:31:32;5.18;;;2.40;;
40731;SDS011;26420;52.256;9.096;2023-11-21T23:36:35;3.42;;;2.22;;
40731;SDS011;26420;52.256;9.096;2023-11-21T23:41:39;3.40;;;2.40;;
40731;SDS011;26420;52.256;9.096;2023-11-21T23:46:41;2.55;;;1.80;;
40731;SDS011;26420;52.256;9.096;2023-11-21T23:51:43;5.45;;;2.88;;
40731;SDS011;26420;52.256;9.096;2023-11-21T23:56:47;3.90;;;2.47;;
